Time;durP1;ratioP1;P1;durP2;ratioP2;P2;SDS_P1;SDS_P2;PMS_P1;PMS_P2;Temp;Humidity;BMP_temperature;BMP_pressure;BME280_temperature;BME280_humidity;BME280_pressure;Samples;Min_cycle;Max_cycle;Signal;HPM_P1;HPM_P2
2022/08/20 00:00:35;;;;;;;26.58;17.45;;;;;;;18.48;100.00;101438.38;5011850;28;20026;-61
2022/08/20 00:03:16;;;;;;;24.25;17.38;;;;;;;18.52;100.00;101438.50;5011848;28;20022;-62
2022/08/20 00:05:46;;;;;;;24.65;17.05;;;;;;;18.47;100.00;101422.75;4994294;28;20335;-62
2022/08/20 00:08:12;;;;;;;25.17;17.50;;;;;;;18.57;100.00;101432.66;5011885;28;20030;-62
2022/08/20 00:10:42;;;;;;;25.08;17.40;;;;;;;18.54;100.00;101428.59;5011852;28;20025;-62
2022/08/20 00:13:10;;;;;;;27.90;18.48;;;;;;;18.52;100.00;101421.69;5011982;28;20449;-62
2022/08/20 00:15:37;;;;;;;26.00;17.88;;;;;;;18.52;100.00;101428.09;4994016;28;20116;-63
2022/08/20 00:18:03;;;;;;;25.30;18.27;;;;;;;18.51;100.00;101425.66;5012011;28;20131;-63
2022/08/20 00:20:34;;;;;;;25.20;17.83;;;;;;;18.43;100.00;101412.56;5011862;28;20522;-63
2022/08/20 00:23:00;;;;;;;25.77;18.65;;;;;;;18.49;100.00;101428.00;5012466;28;20025;-63
2022/08/20 00:25:27;;;;;;;27.45;19.30;;;;;;;18.54;100.00;101422.97;5011771;28;20037;-62
2022/08/20 00:27:53;;;;;;;26.77;19.63;;;;;;;18.52;100.00;101425.31;5011795;28;20484;-63
2022/08/20 00:30:19;;;;;;;26.58;18.42;;;;;;;18.53;100.00;101426.94;5014584;28;20117;-62
2022/08/20 00:32:51;;;;;;;26.48;19.50;;;;;;;18.53;100.00;101428.94;5015216;28;20033;-62
2022/08/20 00:35:20;;;;;;;28.15;20.00;;;;;;;18.50;100.00;101427.66;5015715;28;20036;-62
2022/08/20 00:37:46;;;;;;;27.42;19.33;;;;;;;18.49;100.00;101437.22;5015795;28;20029;-62
2022/08/20 00:40:15;;;;;;;26.75;19.48;;;;;;;18.48;100.00;101421.56;5015561;28;20335;-62
2022/08/20 00:42:43;;;;;;;27.23;20.55;;;;;;;18.40;100.00;101406.50;5013900;28;20125;-62
2022/08/20 00:45:10;;;;;;;27.10;19.75;;;;;;;18.47;100.00;101421.91;5015705;28;20026;-63
2022/08/20 00:47:39;;;;;;;25.63;19.95;;;;;;;18.50;100.00;101413.66;5015258;28;20077;-63
2022/08/20 00:50:06;;;;;;;26.33;18.83;;;;;;;18.45;100.00;101416.66;5014715;28;20125;-63
2022/08/20 00:52:32;;;;;;;25.67;18.65;;;;;;;18.47;100.00;101419.94;5014673;28;20057;-63
2022/08/20 00:55:00;;;;;;;26.17;18.75;;;;;;;18.47;100.00;101417.13;4997068;28;20171;-63
2022/08/20 00:57:33;;;;;;;25.75;19.65;;;;;;;18.38;100.00;101406.00;5015122;28;20041;-62
2022/08/20 01:00:02;;;;;;;25.35;18.83;;;;;;;18.47;100.00;101421.91;5015363;28;20033;-63
2022/08/20 01:02:30;;;;;;;26.45;20.02;;;;;;;18.45;100.00;101408.25;5014753;28;20454;-63
2022/08/20 01:04:56;;;;;;;27.10;18.52;;;;;;;18.50;100.00;101422.06;5014783;28;20082;-63
2022/08/20 01:07:31;;;;;;;26.02;19.35;;;;;;;18.49;100.00;101416.78;5013302;28;20034;-64
2022/08/20 01:09:57;;;;;;;26.70;19.35;;;;;;;18.52;100.00;101419.69;5014672;28;20030;-63
2022/08/20 01:12:24;;;;;;;25.77;18.80;;;;;;;18.53;100.00;101418.53;5014463;28;20041;-63
2022/08/20 01:14:50;;;;;;;24.40;18.00;;;;;;;18.53;100.00;101410.13;5014670;28;20520;-63
2022/08/20 01:17:21;;;;;;;25.10;18.08;;;;;;;18.54;100.00;101411.78;5014640;28;20034;-63
2022/08/20 01:20:09;;;;;;;25.90;18.92;;;;;;;18.55;100.00;101409.81;4997104;28;20416;-63
2022/08/20 01:26:07;;;;;;;26.13;18.67;;;;;;;18.54;100.00;101414.56;5013855;28;20108;-63
2022/08/20 01:28:53;;;;;;;25.55;17.90;;;;;;;18.48;100.00;101407.56;5014139;28;20292;-63
2022/08/20 01:31:22;;;;;;;24.02;17.70;;;;;;;18.53;100.00;101426.13;5014178;28;20029;-61
2022/08/20 01:33:49;;;;;;;24.88;18.42;;;;;;;18.52;100.00;101425.31;5014172;28;20088;-63
2022/08/20 01:36:17;;;;;;;25.52;18.83;;;;;;;18.53;100.00;101424.16;5014398;28;20100;-63
2022/08/20 01:38:43;;;;;;;26.95;19.35;;;;;;;18.55;100.00;101407.81;5014738;28;20030;-63
2022/08/20 01:41:21;;;;;;;25.67;18.90;;;;;;;18.50;100.00;101416.44;5014570;28;20034;-63
2022/08/20 01:43:55;;;;;;;27.02;19.27;;;;;;;18.53;100.00;101424.16;5014499;28;20052;-63
2022/08/20 01:46:26;;;;;;;30.45;20.45;;;;;;;18.49;100.00;101422.38;5014349;28;20029;-63
2022/08/20 01:48:53;;;;;;;26.30;19.65;;;;;;;18.43;100.00;101420.97;5014029;28;20190;-64
2022/08/20 01:51:22;;;;;;;25.65;19.13;;;;;;;18.41;100.00;101421.34;5013917;28;20392;-64
2022/08/20 01:53:51;;;;;;;25.50;19.55;;;;;;;18.32;100.00;101415.81;5014208;28;20040;-64
2022/08/20 01:56:21;;;;;;;25.45;19.52;;;;;;;18.36;100.00;101422.38;5014286;28;20064;-64
2022/08/20 01:58:50;;;;;;;26.17;20.05;;;;;;;18.42;100.00;101424.94;5014182;28;20145;-65
2022/08/20 02:01:39;;;;;;;27.20;20.73;;;;;;;18.40;100.00;101426.09;5013767;28;20026;-64
2022/08/20 02:04:06;;;;;;;28.50;20.02;;;;;;;18.36;100.00;101415.94;5012752;28;20026;-64
2022/08/20 02:06:35;;;;;;;29.25;20.90;;;;;;;18.39;100.00;101430.06;5013709;28;20026;-64
2022/08/20 02:09:02;;;;;;;27.45;20.80;;;;;;;18.42;100.00;101431.34;5013457;28;20053;-64
2022/08/20 02:11:29;;;;;;;28.08;20.83;;;;;;;18.44;100.00;101426.22;5013918;28;20034;-64
2022/08/20 02:13:56;;;;;;;27.08;19.88;;;;;;;18.48;100.00;101429.16;5013449;28;20412;-63
2022/08/20 02:16:28;;;;;;;27.23;21.20;;;;;;;18.46;100.00;101425.91;5013735;28;20053;-64
2022/08/20 02:18:57;;;;;;;27.65;20.48;;;;;;;18.50;100.00;101422.06;5013891;28;20033;-62
2022/08/20 02:21:24;;;;;;;27.20;20.83;;;;;;;18.53;100.00;101434.53;5013361;28;20057;-62
2022/08/20 02:23:49;;;;;;;27.98;22.13;;;;;;;18.53;100.00;101420.53;5013685;28;20053;-62
2022/08/20 02:26:17;;;;;;;28.48;22.08;;;;;;;18.52;100.00;101427.31;5013717;28;20118;-63
2022/08/20 02:28:50;;;;;;;29.08;21.92;;;;;;;18.51;100.00;101423.69;5013851;28;20025;-64
2022/08/20 02:31:17;;;;;;;29.92;22.35;;;;;;;18.50;100.00;101430.47;5013103;28;20032;-64
2022/08/20 02:33:43;;;;;;;30.65;22.90;;;;;;;18.48;100.00;101415.97;5013007;28;20187;-64
2022/08/20 02:36:09;;;;;;;30.02;23.48;;;;;;;18.49;100.00;101423.22;5012907;28;20069;-64
2022/08/20 02:38:37;;;;;;;28.95;22.55;;;;;;;18.52;100.00;101427.31;5013274;28;20044;-63
2022/08/20 02:41:03;;;;;;;29.98;23.25;;;;;;;18.50;100.00;101430.47;5013742;28;20108;-64
2022/08/20 02:43:30;;;;;;;31.30;24.15;;;;;;;18.51;100.00;101434.91;5013146;28;20071;-64
2022/08/20 02:45:56;;;;;;;31.50;24.90;;;;;;;18.45;100.00;101427.06;5013441;28;20489;-64
2022/08/20 02:48:22;;;;;;;32.33;25.02;;;;;;;18.45;100.00;101430.66;5012937;28;20026;-65
2022/08/20 02:50:52;;;;;;;32.70;24.13;;;;;;;18.40;100.00;101434.50;5013179;28;20133;-64
2022/08/20 02:53:18;;;;;;;31.27;24.90;;;;;;;18.40;100.00;101436.50;5012434;28;20057;-64
2022/08/20 02:55:43;;;;;;;32.55;23.88;;;;;;;18.33;100.00;101433.41;5012725;28;20030;-65
2022/08/20 02:58:08;;;;;;;30.50;24.52;;;;;;;18.33;100.00;101437.06;5012808;28;20030;-65
2022/08/20 03:00:34;;;;;;;32.60;24.85;;;;;;;18.27;100.00;101432.84;5012489;28;20112;-64
2022/08/20 03:03:00;;;;;;;33.05;24.75;;;;;;;18.14;100.00;101420.75;5012901;28;20033;-64
2022/08/20 03:05:26;;;;;;;33.90;25.25;;;;;;;18.22;100.00;101435.84;5013161;28;20033;-64
2022/08/20 03:07:52;;;;;;;32.05;23.73;;;;;;;18.25;100.00;101437.97;5012599;28;20022;-63
2022/08/20 03:10:24;;;;;;;32.03;23.73;;;;;;;18.15;100.00;101414.00;5012062;28;20026;-64
2022/08/20 03:12:51;;;;;;;31.75;24.45;;;;;;;18.23;100.00;101435.50;5012345;28;20026;-64
2022/08/20 03:15:17;;;;;;;35.28;25.95;;;;;;;18.26;100.00;101430.38;5012326;28;20048;-64
2022/08/20 03:17:42;;;;;;;35.33;25.60;;;;;;;18.27;100.00;101429.22;5011984;28;20026;-64
2022/08/20 03:20:08;;;;;;;33.95;25.13;;;;;;;18.27;100.00;101432.00;5012256;28;20044;-64
2022/08/20 03:22:35;;;;;;;33.15;25.42;;;;;;;18.27;100.00;101443.22;5011150;28;20037;-64
2022/08/20 03:25:00;;;;;;;34.08;25.58;;;;;;;18.23;100.00;101437.47;5012153;28;20034;-64
2022/08/20 03:27:26;;;;;;;35.03;25.00;;;;;;;18.21;100.00;101429.44;5012102;28;20415;-64
2022/08/20 03:29:51;;;;;;;31.52;23.63;;;;;;;18.21;100.00;101434.19;5012246;28;20022;-64
2022/08/20 03:32:16;;;;;;;34.08;25.40;;;;;;;18.21;100.00;101437.00;5011670;28;20026;-64
2022/08/20 03:34:42;;;;;;;32.92;24.63;;;;;;;18.20;100.00;101441.81;5012102;28;20057;-64
2022/08/20 03:37:07;;;;;;;33.17;25.08;;;;;;;18.24;100.00;101450.31;5011918;28;20071;-64
2022/08/20 03:39:33;;;;;;;32.50;25.17;;;;;;;18.22;100.00;101456.28;5012206;28;20105;-64
2022/08/20 03:41:58;;;;;;;33.97;25.10;;;;;;;18.26;100.00;101444.38;5010850;28;20389;-64
2022/08/20 03:44:25;;;;;;;33.88;25.08;;;;;;;18.25;100.00;101446.38;5011787;28;20026;-64
2022/08/20 03:46:50;;;;;;;38.42;24.50;;;;;;;18.27;100.00;101449.66;5012075;28;20045;-64
2022/08/20 03:49:16;;;;;;;32.97;24.88;;;;;;;18.27;100.00;101448.81;5011981;28;20025;-64
2022/08/20 03:51:41;;;;;;;37.08;25.92;;;;;;;18.27;100.00;101443.22;5011868;28;20441;-64
2022/08/20 03:54:06;;;;;;;36.15;26.13;;;;;;;18.18;100.00;101446.91;5011820;28;20105;-64
2022/08/20 03:56:31;;;;;;;36.35;27.70;;;;;;;18.21;100.00;101446.25;5012233;28;20084;-64
2022/08/20 03:58:57;;;;;;;38.78;27.95;;;;;;;18.22;100.00;101441.44;5012083;28;20443;-64
2022/08/20 04:01:22;;;;;;;39.47;27.17;;;;;;;18.18;100.00;101438.53;5011872;28;20080;-64
2022/08/20 04:03:47;;;;;;;38.45;27.88;;;;;;;18.18;100.00;101440.50;5012299;28;20136;-64
2022/08/20 04:06:13;;;;;;;38.92;29.88;;;;;;;18.15;100.00;101438.38;5015565;28;20377;-64
2022/08/20 04:08:39;;;;;;;46.50;30.30;;;;;;;18.13;100.00;101443.50;5015382;28;20030;-63
2022/08/20 04:11:05;;;;;;;42.67;32.33;;;;;;;18.07;100.00;101452.13;5015706;28;20018;-63
2022/08/20 04:13:30;;;;;;;43.90;32.20;;;;;;;18.05;100.00;101453.63;5015718;28;20040;-63
2022/08/20 04:15:56;;;;;;;42.63;31.88;;;;;;;18.03;100.00;101459.56;5015044;28;20398;-63
2022/08/20 04:18:24;;;;;;;43.55;31.67;;;;;;;18.04;100.00;101460.41;5015483;28;20052;-64
2022/08/20 04:20:51;;;;;;;46.90;32.50;;;;;;;18.01;100.00;101458.28;5015285;28;20451;-64
2022/08/20 04:23:16;;;;;;;45.33;31.55;;;;;;;18.01;100.00;101461.88;5015005;28;20084;-64
2022/08/20 04:25:43;;;;;;;45.33;32.17;;;;;;;18.01;100.00;101461.06;5015473;28;20369;-64
2022/08/20 04:28:15;;;;;;;44.15;33.10;;;;;;;17.88;100.00;101446.97;5015483;28;20473;-63
2022/08/20 04:30:41;;;;;;;43.92;32.40;;;;;;;18.04;100.00;101471.59;5015001;28;20166;-63
2022/08/20 04:33:07;;;;;;;45.33;33.13;;;;;;;18.00;100.00;101467.84;5014974;28;20104;-62
2022/08/20 04:35:32;;;;;;;48.10;34.67;;;;;;;17.96;100.00;101464.03;5015378;28;20072;-62
2022/08/20 04:38:05;;;;;;;45.97;34.58;;;;;;;17.78;100.00;101448.22;5015531;28;20518;-62
2022/08/20 04:43:15;;;;;;;47.90;33.75;;;;;;;17.83;100.00;101472.38;5015059;28;20107;-63
2022/08/20 04:45:41;;;;;;;47.17;35.45;;;;;;;17.85;100.00;101478.47;5015293;28;20022;-63
2022/08/20 04:48:07;;;;;;;48.08;35.35;;;;;;;17.84;100.00;101479.63;5015010;28;20167;-64
2022/08/20 04:50:35;;;;;;;46.92;34.60;;;;;;;17.84;100.00;101485.22;5015138;28;20093;-65
2022/08/20 04:53:03;;;;;;;47.58;36.10;;;;;;;17.84;100.00;101488.03;5014994;28;20109;-64
2022/08/20 04:55:29;;;;;;;47.90;34.92;;;;;;;17.83;100.00;101479.94;5015175;28;20030;-63
2022/08/20 04:57:58;;;;;;;49.28;35.40;;;;;;;17.83;100.00;101489.19;5015067;28;20033;-63
2022/08/20 05:00:23;;;;;;;44.55;34.42;;;;;;;17.81;100.00;101496.25;5014812;28;20534;-64
2022/08/20 05:02:49;;;;;;;46.70;34.42;;;;;;;17.82;100.00;101498.72;5014408;28;20105;-64
2022/08/20 05:05:14;;;;;;;51.35;37.30;;;;;;;17.74;100.00;101489.22;5014625;28;20373;-64
2022/08/20 05:07:42;;;;;;;52.03;37.53;;;;;;;17.77;100.00;101504.50;5014581;28;20064;-64
2022/08/20 05:10:09;;;;;;;49.67;37.30;;;;;;;17.60;100.00;101494.28;5014566;28;20109;-64
2022/08/20 05:12:34;;;;;;;46.55;36.28;;;;;;;17.65;100.00;101508.03;5014761;28;20442;-64
2022/08/20 05:15:00;;;;;;;50.78;38.05;;;;;;;17.60;100.00;101502.66;5013922;28;20124;-64
2022/08/20 05:17:25;;;;;;;52.33;36.65;;;;;;;17.60;100.00;101517.44;5014420;28;20064;-63
2022/08/20 05:19:51;;;;;;;47.42;35.38;;;;;;;17.54;100.00;101516.03;5014317;28;20053;-63
2022/08/20 05:22:17;;;;;;;48.83;35.83;;;;;;;17.51;100.00;101518.69;5014157;28;20656;-64
2022/08/20 05:24:42;;;;;;;46.85;34.05;;;;;;;17.49;100.00;101513.41;5014051;28;20042;-63
2022/08/20 05:27:08;;;;;;;45.22;33.75;;;;;;;17.50;100.00;101514.22;5014660;28;20026;-64
2022/08/20 05:29:33;;;;;;;48.85;34.40;;;;;;;17.50;100.00;101512.25;5014430;28;20478;-64
2022/08/20 05:31:58;;;;;;;43.92;33.35;;;;;;;17.53;100.00;101507.94;5014462;28;20374;-64
2022/08/20 05:34:25;;;;;;;42.95;32.10;;;;;;;17.53;100.00;101513.53;5014640;28;20443;-64
2022/08/20 05:36:51;;;;;;;46.47;32.75;;;;;;;17.55;100.00;101516.81;4996482;28;20486;-64
2022/08/20 05:39:19;;;;;;;44.78;32.28;;;;;;;17.63;100.00;101521.53;5014314;28;20117;-64
2022/08/20 05:41:45;;;;;;;42.42;31.35;;;;;;;17.67;100.00;101514.13;5014109;28;20033;-64
2022/08/20 05:44:12;;;;;;;43.00;31.70;;;;;;;17.74;100.00;101525.59;5013940;28;20026;-63
2022/08/20 05:46:39;;;;;;;46.00;32.35;;;;;;;17.77;100.00;101524.94;5014443;28;20351;-63
2022/08/20 05:49:06;;;;;;;44.75;31.52;;;;;;;17.69;100.00;101524.97;5013911;28;20038;-63
2022/08/20 05:51:32;;;;;;;40.55;30.35;;;;;;;17.69;100.00;101531.41;5013923;28;20076;-64
2022/08/20 05:53:57;;;;;;;42.67;31.00;;;;;;;17.67;100.00;101530.09;5014089;28;20367;-64
2022/08/20 05:56:22;;;;;;;45.58;31.77;;;;;;;17.65;100.00;101535.22;5014208;28;20415;-64
2022/08/20 05:58:48;;;;;;;43.75;30.73;;;;;;;17.63;100.00;101538.34;5013888;28;20026;-63
2022/08/20 06:01:13;;;;;;;41.72;30.58;;;;;;;17.60;100.00;101534.25;5013772;28;20030;-64
2022/08/20 06:06:22;;;;;;;42.50;31.33;;;;;;;17.64;100.00;101534.38;5014177;28;20041;-63
2022/08/20 06:08:47;;;;;;;39.10;29.77;;;;;;;17.66;100.00;101540.47;4995785;28;20026;-63
2022/08/20 06:11:13;;;;;;;44.58;31.73;;;;;;;17.66;100.00;101536.88;5013685;28;20120;-64
2022/08/20 06:13:38;;;;;;;40.17;30.65;;;;;;;17.68;100.00;101538.16;5013797;28;20049;-64
2022/08/20 06:16:03;;;;;;;46.05;31.70;;;;;;;17.64;100.00;101536.38;5013648;28;20497;-61
2022/08/20 06:18:28;;;;;;;45.13;31.33;;;;;;;17.69;100.00;101539.81;5013006;28;20061;-62
2022/08/20 06:20:54;;;;;;;44.10;30.77;;;;;;;17.75;100.00;101544.03;5013705;28;20026;-63
2022/08/20 06:23:19;;;;;;;42.70;30.67;;;;;;;17.84;100.00;101540.34;5013698;28;20247;-62
2022/08/20 06:25:48;;;;;;;41.28;30.77;;;;;;;18.05;100.00;101537.59;5013225;28;20029;-62
2022/08/20 06:28:14;;;;;;;44.28;31.25;;;;;;;18.14;100.00;101537.53;5012922;28;20026;-61
2022/08/20 06:30:39;;;;;;;40.30;29.48;;;;;;;18.17;100.00;101537.69;5013253;28;20029;-60
2022/08/20 06:33:05;;;;;;;40.75;30.23;;;;;;;18.22;100.00;101533.84;5013271;28;20060;-66
2022/08/20 06:35:31;;;;;;;43.60;31.92;;;;;;;18.29;100.00;101545.31;5013375;28;20033;-62
2022/08/20 06:37:59;;;;;;;43.42;30.73;;;;;;;18.30;100.00;101532.16;5013600;28;20034;-62
2022/08/20 06:40:27;;;;;;;43.55;31.17;;;;;;;18.18;100.00;101549.72;5013221;28;20088;-62
2022/08/20 06:42:53;;;;;;;43.05;30.20;;;;;;;18.07;100.00;101535.28;5013103;28;20041;-62
2022/08/20 06:45:26;;;;;;;47.03;32.15;;;;;;;18.00;100.00;101530.22;5011580;28;20240;-63
2022/08/20 06:47:54;;;;;;;44.67;30.93;;;;;;;18.20;100.00;101544.56;5011163;28;20030;-62
2022/08/20 06:50:30;;;;;;;41.97;30.08;;;;;;;18.25;100.00;101538.78;5010833;28;20081;-62
2022/08/20 06:52:56;;;;;;;44.65;31.73;;;;;;;18.40;100.00;101546.56;5010964;28;20146;-62
2022/08/20 06:55:22;;;;;;;40.65;31.73;;;;;;;18.48;100.00;101542.03;4993372;28;20115;-62
2022/08/20 06:57:58;;;;;;;42.95;30.23;;;;;;;18.52;100.00;101540.19;5010630;28;20458;-62
2022/08/20 07:00:25;;;;;;;43.05;29.80;;;;;;;18.64;100.00;101549.81;4992182;28;20049;-62
2022/08/20 07:02:50;;;;;;;38.20;29.58;;;;;;;18.74;100.00;101549.38;5010266;28;20036;-61
2022/08/20 07:05:15;;;;;;;41.25;29.45;;;;;;;18.80;100.00;101547.97;5010137;28;20017;-61
2022/08/20 07:07:46;;;;;;;39.78;29.73;;;;;;;18.83;100.00;101549.28;5010706;28;20397;-61
2022/08/20 07:10:13;;;;;;;40.20;27.63;;;;;;;18.81;100.00;101549.63;5009369;28;20030;-61
2022/08/20 07:12:38;;;;;;;36.00;27.73;;;;;;;18.81;100.00;101560.84;5010114;28;20048;-62
2022/08/20 07:15:06;;;;;;;35.50;26.13;;;;;;;18.84;100.00;101562.94;5010675;28;20470;-61
2022/08/20 07:17:32;;;;;;;38.65;27.08;;;;;;;18.88;100.00;101565.06;5010396;28;20129;-61
2022/08/20 07:19:57;;;;;;;36.67;26.73;;;;;;;18.90;100.00;101566.34;5009487;28;20371;-61
2022/08/20 07:22:23;;;;;;;33.67;26.85;;;;;;;19.01;100.00;101566.75;5009734;28;20450;-61
2022/08/20 07:24:50;;;;;;;35.83;26.05;;;;;;;19.10;100.00;101577.91;4992000;28;20414;-61
2022/08/20 07:27:19;;;;;;;33.80;24.75;;;;;;;19.18;100.00;101566.56;5010044;28;20018;-61
2022/08/20 07:32:35;;;;;;;35.65;24.83;;;;;;;19.22;99.11;101568.69;5010310;28;20469;-61
2022/08/20 07:35:06;;;;;;;35.28;24.48;;;;;;;19.26;98.88;101578.03;5010624;28;20057;-62
2022/08/20 07:37:43;;;;;;;31.85;23.58;;;;;;;19.27;97.90;101571.28;5009887;28;20037;-62
2022/08/20 07:40:20;;;;;;;33.97;24.42;;;;;;;19.44;96.95;101585.09;5010214;28;20057;-61
2022/08/20 07:42:47;;;;;;;34.08;24.10;;;;;;;19.63;94.86;101584.50;5010740;28;20042;-61
2022/08/20 07:45:14;;;;;;;29.38;21.98;;;;;;;19.75;93.35;101578.06;5010766;28;20068;-61
2022/08/20 07:47:41;;;;;;;33.22;22.58;;;;;;;19.83;94.09;101592.34;5010279;28;20073;-60
2022/08/20 07:50:08;;;;;;;34.03;22.55;;;;;;;19.83;93.09;101592.34;5009888;28;20052;-61
2022/08/20 07:52:34;;;;;;;31.85;22.75;;;;;;;19.87;93.54;101599.75;5010426;28;20037;-61
2022/08/20 07:55:04;;;;;;;30.88;20.70;;;;;;;19.90;90.80;101603.81;5010453;28;20045;-61
2022/08/20 07:57:30;;;;;;;30.73;21.23;;;;;;;19.97;91.26;101609.66;5010357;28;20034;-61
2022/08/20 07:59:57;;;;;;;29.88;21.63;;;;;;;20.02;91.91;101609.44;5008935;28;20072;-63
2022/08/20 08:02:23;;;;;;;30.27;20.98;;;;;;;20.08;90.77;101608.03;5010734;28;20030;-62
2022/08/20 08:04:49;;;;;;;29.45;20.98;;;;;;;20.24;90.19;101604.47;4992765;28;20508;-61
2022/08/20 08:07:15;;;;;;;27.08;19.65;;;;;;;20.32;88.22;101595.09;5010154;28;20018;-61
2022/08/20 08:09:43;;;;;;;28.52;20.08;;;;;;;20.34;88.70;101606.78;4991440;28;20583;-62
2022/08/20 08:12:10;;;;;;;28.13;20.35;;;;;;;20.29;87.65;101603.41;5010553;28;20072;-62
2022/08/20 08:14:37;;;;;;;29.17;19.38;;;;;;;20.30;87.70;101605.06;5010273;28;20026;-62
2022/08/20 08:17:04;;;;;;;30.02;20.08;;;;;;;20.26;87.59;101613.38;5010020;28;20117;-62
2022/08/20 08:19:35;;;;;;;26.60;19.23;;;;;;;20.15;86.41;101601.81;5010122;28;20034;-62
2022/08/20 08:22:00;;;;;;;28.77;20.08;;;;;;;20.26;85.78;101614.19;5010252;28;20419;-62
2022/08/20 08:24:25;;;;;;;28.98;21.27;;;;;;;20.39;87.14;101597.28;5010301;28;20068;-62
2022/08/20 08:26:51;;;;;;;29.50;20.98;;;;;;;20.56;86.53;101599.00;5009871;28;20034;-62
2022/08/20 08:29:17;;;;;;;28.73;19.05;;;;;;;20.57;85.46;101607.06;5009788;28;20497;-62
2022/08/20 08:31:42;;;;;;;27.77;19.13;;;;;;;20.54;87.00;101610.63;5009913;28;20030;-62
2022/08/20 08:34:08;;;;;;;26.73;18.08;;;;;;;20.58;84.12;101614.34;5010394;28;20365;-62
2022/08/20 08:36:33;;;;;;;28.33;17.30;;;;;;;20.78;83.40;101614.53;5009888;28;20351;-62
2022/08/20 08:38:58;;;;;;;26.55;15.88;;;;;;;20.87;80.58;101618.00;5010051;28;20540;-62
2022/08/20 08:41:33;;;;;;;25.42;17.40;;;;;;;20.97;81.27;101615.84;5010431;28;20076;-62
2022/08/20 08:44:06;;;;;;;26.17;16.88;;;;;;;20.95;81.76;101621.00;4992100;28;20076;-61
2022/08/20 08:46:39;;;;;;;25.95;16.48;;;;;;;20.74;78.54;101610.78;5008363;28;20504;-63
2022/08/20 08:49:04;;;;;;;24.83;16.00;;;;;;;20.61;79.50;101632.47;5009567;28;20038;-62
2022/08/20 08:52:00;;;;;;;24.10;15.95;;;;;;;20.60;81.23;101633.66;4992146;28;20050;-61
2022/08/20 08:54:30;;;;;;;24.70;15.93;;;;;;;20.50;80.60;101637.78;4993913;28;20026;-61
2022/08/20 08:56:55;;;;;;;22.83;15.80;;;;;;;20.54;79.55;101635.09;4993929;28;20057;-61
2022/08/20 08:59:22;;;;;;;25.85;16.98;;;;;;;20.63;79.64;101624.50;4993259;28;20121;-61
2022/08/20 09:01:53;;;;;;;25.42;16.40;;;;;;;20.76;80.62;101630.13;4993761;28;20061;-63
2022/08/20 09:04:20;;;;;;;24.27;15.68;;;;;;;20.78;78.86;101630.59;4993658;28;20471;-63
2022/08/20 09:06:47;;;;;;;23.95;16.02;;;;;;;20.66;78.46;101632.25;4992187;28;20332;-62
2022/08/20 09:09:26;;;;;;;23.90;15.57;;;;;;;20.57;80.32;101635.19;4993500;28;20110;-62
2022/08/20 09:11:54;;;;;;;25.13;16.70;;;;;;;20.54;79.95;101621.88;4992574;28;20030;-62
2022/08/20 09:14:23;;;;;;;24.05;15.70;;;;;;;20.71;79.64;101631.16;4993240;28;20105;-63
2022/08/20 09:16:49;;;;;;;25.63;15.52;;;;;;;20.84;77.08;101643.22;4993909;28;20031;-63
2022/08/20 09:19:14;;;;;;;25.10;15.00;;;;;;;20.83;75.35;101636.75;4993512;28;20063;-63
2022/08/20 09:21:40;;;;;;;23.60;15.70;;;;;;;20.84;76.38;101640.41;4993419;28;20037;-62
2022/08/20 09:24:05;;;;;;;23.02;14.82;;;;;;;20.97;76.78;101636.34;4992783;28;20514;-63
2022/08/20 09:26:30;;;;;;;23.48;13.80;;;;;;;21.15;75.78;101636.84;4993137;28;20022;-63
2022/08/20 09:28:56;;;;;;;24.33;15.13;;;;;;;21.25;75.17;101635.53;4992842;28;20495;-62
2022/08/20 09:31:23;;;;;;;24.35;15.13;;;;;;;21.21;73.11;101645.03;4992785;28;20030;-62
2022/08/20 09:33:49;;;;;;;23.40;14.60;;;;;;;21.10;71.71;101639.94;4993303;28;20033;-62
2022/08/20 09:36:14;;;;;;;22.70;14.43;;;;;;;21.06;71.34;101641.81;4993005;28;20030;-62
2022/08/20 09:38:39;;;;;;;23.50;13.98;;;;;;;21.09;69.75;101641.13;4993295;28;20042;-62
2022/08/20 09:41:04;;;;;;;22.80;14.45;;;;;;;21.22;70.70;101632.59;4993031;28;20479;-62
2022/08/20 09:43:30;;;;;;;22.13;13.43;;;;;;;21.35;69.99;101631.34;4993190;28;20129;-62
2022/08/20 09:45:55;;;;;;;23.60;14.43;;;;;;;21.49;71.01;101631.72;4991529;28;20113;-62
2022/08/20 09:48:20;;;;;;;21.42;13.93;;;;;;;21.60;69.70;101632.03;4992764;28;20030;-62
2022/08/20 09:50:48;;;;;;;23.55;14.25;;;;;;;21.68;69.24;101632.22;5003785;28;20134;-62
2022/08/20 09:53:14;;;;;;;22.48;13.85;;;;;;;21.76;69.01;101637.66;5012165;28;20026;-62
2022/08/20 09:55:43;;;;;;;23.35;12.45;;;;;;;21.55;66.55;101626.63;5012178;28;20331;-62
2022/08/20 09:58:20;;;;;;;21.83;13.02;;;;;;;21.61;68.20;101636.50;5012282;28;20029;-63
2022/08/20 10:00:46;;;;;;;23.88;13.30;;;;;;;21.78;64.91;101629.66;5011958;28;20038;-64
2022/08/20 10:03:11;;;;;;;21.58;12.27;;;;;;;21.97;64.39;101633.72;5011766;28;20044;-62
2022/08/20 10:05:36;;;;;;;20.88;11.93;;;;;;;22.22;63.74;101628.66;5012072;28;20034;-63
2022/08/20 10:08:06;;;;;;;21.80;11.25;;;;;;;22.32;59.95;101624.47;5012223;28;20022;-63
2022/08/20 10:10:32;;;;;;;21.02;11.50;;;;;;;22.50;62.19;101624.06;5011209;28;20038;-62
2022/08/20 10:12:57;;;;;;;20.17;11.32;;;;;;;22.60;58.76;101640.41;5012037;28;20072;-62
2022/08/20 10:15:22;;;;;;;20.02;11.43;;;;;;;22.70;59.64;101634.19;5012177;28;20029;-63
2022/08/20 10:17:48;;;;;;;21.70;12.30;;;;;;;22.80;59.76;101641.22;5012336;28;20061;-63
2022/08/20 10:20:13;;;;;;;22.10;11.93;;;;;;;22.91;61.38;101627.31;5012118;28;20037;-62
2022/08/20 10:22:39;;;;;;;19.75;12.48;;;;;;;23.11;60.60;101628.13;5011484;28;20214;-61
2022/08/20 10:25:05;;;;;;;23.83;13.68;;;;;;;23.41;61.13;101626.66;5011426;28;20053;-62
2022/08/20 10:27:30;;;;;;;20.98;11.95;;;;;;;23.33;58.12;101634.22;5011172;28;20401;-62
2022/08/20 10:29:56;;;;;;;22.20;12.10;;;;;;;23.05;58.80;101633.25;4993643;28;20040;-62
2022/08/20 10:32:21;;;;;;;20.88;12.23;;;;;;;22.79;60.11;101630.31;5011383;28;20109;-62
2022/08/20 10:34:47;;;;;;;21.95;12.57;;;;;;;22.54;61.54;101637.06;5011213;28;20049;-62
2022/08/20 10:37:17;;;;;;;20.42;9.85;;;;;;;22.24;57.99;101643.22;5011471;28;20026;-62
2022/08/20 10:39:44;;;;;;;18.60;9.57;;;;;;;21.86;55.50;101649.56;5011879;28;20032;-62
2022/08/20 10:42:09;;;;;;;20.58;9.35;;;;;;;21.71;57.06;101643.56;5011601;28;20033;-63
2022/08/20 10:44:35;;;;;;;19.50;9.43;;;;;;;21.84;56.46;101649.91;5011365;28;20030;-61
2022/08/20 10:47:13;;;;;;;16.60;9.25;;;;;;;22.15;57.67;101645.41;4994290;28;20108;-62
2022/08/20 10:49:38;;;;;;;19.42;9.30;;;;;;;22.37;54.66;101648.75;5012911;28;20025;-63
2022/08/20 10:52:04;;;;;;;18.75;9.65;;;;;;;22.56;54.33;101634.69;5012517;28;20112;-62
2022/08/20 10:54:29;;;;;;;20.90;9.88;;;;;;;22.79;54.85;101636.75;5012912;28;20041;-62
2022/08/20 10:56:54;;;;;;;20.33;9.77;;;;;;;22.93;55.14;101624.94;5012717;28;20121;-62
2022/08/20 10:59:19;;;;;;;18.98;9.18;;;;;;;22.85;55.21;101637.28;5012608;28;20037;-62
2022/08/20 11:01:45;;;;;;;16.23;9.05;;;;;;;22.65;54.31;101639.31;5012609;28;20449;-62
2022/08/20 11:04:10;;;;;;;20.05;9.45;;;;;;;22.41;52.87;101649.66;5012862;28;20034;-62
2022/08/20 11:06:35;;;;;;;18.02;9.30;;;;;;;22.17;53.00;101645.88;5012127;28;20022;-62
2022/08/20 11:09:01;;;;;;;19.45;9.13;;;;;;;22.03;53.15;101640.72;5012625;28;20033;-62
2022/08/20 11:11:26;;;;;;;19.85;9.63;;;;;;;21.85;52.88;101645.09;5012371;28;20105;-62
2022/08/20 11:13:51;;;;;;;19.50;9.27;;;;;;;21.83;55.28;101647.47;5011895;28;20446;-62
2022/08/20 11:16:16;;;;;;;20.65;9.80;;;;;;;21.83;54.11;101644.66;5012514;28;20026;-62